createdAt,value
2023-01-13T00:00:09.635Z,7.41
2023-01-13T00:05:32.823Z,7.43
2023-01-13T00:10:36.328Z,7.42
2023-01-13T00:15:39.366Z,7.42
2023-01-13T00:20:42.647Z,7.43
2023-01-13T00:25:46.263Z,7.43
2023-01-13T00:30:49.534Z,7.43
2023-01-13T00:36:00.664Z,7.43
2023-01-13T00:41:09.994Z,7.43
2023-01-13T00:46:15.401Z,7.42
2023-01-13T00:51:21.341Z,7.39
2023-01-13T00:56:39.805Z,7.35
2023-01-13T01:01:43.929Z,7.33
2023-01-13T01:06:47.254Z,7.32
2023-01-13T01:11:50.359Z,7.33
2023-01-13T01:16:54.662Z,7.32
2023-01-13T01:21:58.417Z,7.33
2023-01-13T01:27:02.133Z,7.34
2023-01-13T01:32:05.752Z,7.35
2023-01-13T01:37:08.959Z,7.36
2023-01-13T01:42:35.737Z,7.37
2023-01-13T01:47:40.155Z,7.39
2023-01-13T01:52:47.153Z,7.39
2023-01-13T01:57:55.087Z,7.38
2023-01-13T02:02:59.925Z,7.36
2023-01-13T02:08:04.160Z,7.29
2023-01-13T02:13:10.838Z,7.19
2023-01-13T02:18:36.065Z,7.11
2023-01-13T02:23:57.903Z,7.03
2023-01-13T02:29:34.087Z,6.97
2023-01-13T02:34:42.215Z,6.92
2023-01-13T02:40:02.827Z,6.89
2023-01-13T02:45:26.254Z,6.87
2023-01-13T02:50:40.355Z,6.86
2023-01-13T02:55:48.703Z,6.85
2023-01-13T03:00:52.072Z,6.84
2023-01-13T03:06:23.280Z,6.84
2023-01-13T03:11:33.931Z,6.84
2023-01-13T03:16:53.206Z,6.86
2023-01-13T03:22:22.676Z,6.89
2023-01-13T03:27:39.391Z,6.91
2023-01-13T03:32:47.100Z,6.93
2023-01-13T03:37:57.287Z,6.95
2023-01-13T03:43:29.461Z,6.98
2023-01-13T03:48:36.010Z,7.00
2023-01-13T03:53:47.860Z,7.02
2023-01-13T03:58:53.469Z,7.04
2023-01-13T04:04:10.533Z,7.06
2023-01-13T04:09:41.719Z,7.07
2023-01-13T04:14:46.514Z,7.08
2023-01-13T04:19:49.572Z,7.08
2023-01-13T04:24:52.786Z,7.09
2023-01-13T04:29:56.296Z,7.10
2023-01-13T04:34:59.510Z,7.12
2023-01-13T04:40:02.708Z,7.14
2023-01-13T04:45:06.638Z,7.14
2023-01-13T04:50:11.074Z,7.16
2023-01-13T04:55:14.482Z,7.17
2023-01-13T05:00:20.353Z,7.18
2023-01-13T05:05:23.665Z,7.20
2023-01-13T05:10:27.473Z,7.21
2023-01-13T05:15:49.692Z,7.24
2023-01-13T05:20:53.055Z,7.24
2023-01-13T05:25:56.359Z,7.25
2023-01-13T05:31:00.970Z,7.26
2023-01-13T05:36:04.516Z,7.27
2023-01-13T05:41:27.494Z,7.27
2023-01-13T05:46:30.743Z,7.26
2023-01-13T05:51:33.909Z,7.27
2023-01-13T05:56:37.115Z,7.27
2023-01-13T06:01:40.323Z,7.27
2023-01-13T06:06:45.078Z,7.27
2023-01-13T06:11:48.682Z,7.28
2023-01-13T06:16:51.894Z,7.29
2023-01-13T06:21:58.477Z,7.29
2023-01-13T06:27:01.686Z,7.29
2023-01-13T06:32:13.391Z,7.31
2023-01-13T06:37:21.789Z,7.32
2023-01-13T06:42:50.123Z,7.33
2023-01-13T06:47:54.967Z,7.34
2023-01-13T06:52:58.684Z,7.34
2023-01-13T06:58:02.111Z,7.36
2023-01-13T07:03:16.802Z,7.38
2023-01-13T07:08:21.075Z,7.40
2023-01-13T07:13:43.167Z,7.41
2023-01-13T07:18:46.365Z,7.44
2023-01-13T07:23:49.572Z,7.44
2023-01-13T07:28:52.783Z,7.46
2023-01-13T07:33:56.302Z,7.48
2023-01-13T07:38:59.408Z,7.49
2023-01-13T07:44:05.379Z,7.51
2023-01-13T07:49:10.127Z,7.52
2023-01-13T07:54:13.223Z,7.54
2023-01-13T07:59:16.635Z,7.56
2023-01-13T08:04:20.255Z,7.58
2023-01-13T08:09:23.583Z,7.62
2023-01-13T08:14:26.669Z,7.64
2023-01-13T08:19:29.879Z,7.68
2023-01-13T08:24:33.083Z,7.69
2023-01-13T08:29:36.602Z,7.74
2023-01-13T08:34:39.703Z,7.80
2023-01-13T08:39:43.015Z,7.84
2023-01-13T08:44:46.567Z,7.87
2023-01-13T08:49:49.943Z,7.91
2023-01-13T08:54:53.264Z,7.93
2023-01-13T08:59:56.981Z,7.94
2023-01-13T09:05:04.687Z,7.96
2023-01-13T09:10:09.879Z,8.00
2023-01-13T09:15:13.667Z,8.01
2023-01-13T09:20:17.279Z,8.03
2023-01-13T09:25:20.599Z,8.04
2023-01-13T09:30:25.062Z,8.06
2023-01-13T09:35:28.435Z,8.08
2023-01-13T09:40:31.954Z,8.10
2023-01-13T09:46:34.328Z,8.13
2023-01-13T09:51:43.158Z,8.21
2023-01-13T09:56:46.599Z,8.28
2023-01-13T10:02:01.071Z,8.35
2023-01-13T10:07:06.876Z,8.38
2023-01-13T10:12:38.007Z,8.42
2023-01-13T10:18:01.286Z,8.45
2023-01-13T10:23:39.211Z,8.48
2023-01-13T10:28:42.313Z,8.48
2023-01-13T10:33:45.417Z,8.49
2023-01-13T10:38:50.376Z,8.50
2023-01-13T10:44:14.881Z,8.52
2023-01-13T10:49:34.036Z,8.54
2023-01-13T10:54:52.230Z,8.59
2023-01-13T10:59:56.542Z,8.62
2023-01-13T11:05:28.836Z,8.63
2023-01-13T11:10:33.560Z,8.62
2023-01-13T11:15:45.978Z,8.59
2023-01-13T11:20:52.701Z,8.63
2023-01-13T11:26:04.008Z,8.69
2023-01-13T11:31:33.571Z,8.70
2023-01-13T11:36:39.818Z,8.68
2023-01-13T11:42:13.937Z,8.65
2023-01-13T11:47:23.877Z,8.66
2023-01-13T11:52:31.608Z,8.66
2023-01-13T11:58:17.429Z,8.64
2023-01-13T12:03:44.180Z,8.60
2023-01-13T12:08:53.495Z,8.56
2023-01-13T12:14:41.312Z,8.53
2023-01-13T12:19:49.611Z,8.52
2023-01-13T12:25:15.159Z,8.54
2023-01-13T12:30:21.970Z,8.54
2023-01-13T12:35:43.507Z,8.54
2023-01-13T12:41:02.151Z,8.53
2023-01-13T12:46:25.824Z,8.52
2023-01-13T12:51:33.957Z,8.51
2023-01-13T12:56:45.142Z,8.49
2023-01-13T13:02:13.015Z,8.49
2023-01-13T13:07:32.632Z,8.48
2023-01-13T13:13:01.017Z,8.47
2023-01-13T13:18:20.938Z,8.45
2023-01-13T13:23:33.037Z,8.46
2023-01-13T13:28:42.799Z,8.46
2023-01-13T13:34:01.778Z,8.46
2023-01-13T13:39:41.850Z,8.50
2023-01-13T13:45:08.915Z,8.54
2023-01-13T13:50:22.697Z,8.54
2023-01-13T13:55:29.639Z,8.51
2023-01-13T14:00:38.491Z,8.49
2023-01-13T14:05:53.826Z,8.47
2023-01-13T14:10:57.479Z,8.44
2023-01-13T14:16:03.583Z,8.41
2023-01-13T14:21:29.913Z,8.38
2023-01-13T14:26:33.094Z,8.35
2023-01-13T14:31:39.444Z,8.33
2023-01-13T14:36:43.914Z,8.29
2023-01-13T14:41:49.773Z,8.23
2023-01-13T14:46:56.176Z,8.19
2023-01-13T14:52:23.523Z,8.15
2023-01-13T14:57:29.102Z,8.13
2023-01-13T15:02:34.701Z,8.11
2023-01-13T15:07:38.259Z,8.08
2023-01-13T15:12:41.362Z,8.06
2023-01-13T15:17:47.240Z,8.05
2023-01-13T15:22:52.185Z,8.05
2023-01-13T15:27:55.494Z,8.06
2023-01-13T15:32:59.975Z,8.06
2023-01-13T15:38:15.525Z,8.07
2023-01-13T15:43:42.809Z,8.08
2023-01-13T15:48:46.315Z,8.09
2023-01-13T15:53:56.381Z,8.10
2023-01-13T15:58:59.895Z,8.10
2023-01-13T16:04:03.413Z,8.09
2023-01-13T16:09:07.467Z,8.08
2023-01-13T16:14:10.858Z,8.06
2023-01-13T16:19:14.180Z,8.04
2023-01-13T16:24:17.393Z,8.02
2023-01-13T16:29:20.604Z,7.98
2023-01-13T16:34:23.954Z,7.94
2023-01-13T16:39:29.091Z,7.91
2023-01-13T16:44:33.178Z,7.87
2023-01-13T16:49:36.344Z,7.84
2023-01-13T16:54:39.448Z,7.81
2023-01-13T16:59:42.933Z,7.79
2023-01-13T17:04:46.589Z,7.76
2023-01-13T17:09:50.314Z,7.73
2023-01-13T17:14:53.830Z,7.72
2023-01-13T17:19:57.944Z,7.71
2023-01-13T17:25:01.884Z,7.71
2023-01-13T17:30:09.035Z,7.69
2023-01-13T17:35:15.368Z,7.68
2023-01-13T17:40:19.711Z,7.66
2023-01-13T17:45:24.011Z,7.63
2023-01-13T17:50:31.550Z,7.62
2023-01-13T17:55:34.952Z,7.58
2023-01-13T18:00:38.293Z,7.53
2023-01-13T18:05:41.570Z,7.48
2023-01-13T18:10:44.876Z,7.47
2023-01-13T18:15:47.982Z,7.47
2023-01-13T18:21:17.615Z,7.48
2023-01-13T18:26:40.380Z,7.52
2023-01-13T18:31:44.705Z,7.54
2023-01-13T18:36:48.239Z,7.53
2023-01-13T18:42:10.599Z,7.52
2023-01-13T18:47:13.994Z,7.51
2023-01-13T18:52:17.407Z,7.46
2023-01-13T18:57:21.863Z,7.37
2023-01-13T19:02:27.010Z,7.31
2023-01-13T19:07:32.520Z,7.28
2023-01-13T19:12:36.487Z,7.24
2023-01-13T19:17:40.102Z,7.19
2023-01-13T19:22:44.039Z,7.16
2023-01-13T19:27:48.260Z,7.13
2023-01-13T19:32:51.877Z,7.12
2023-01-13T19:37:55.395Z,7.10
2023-01-13T19:43:18.366Z,7.07
2023-01-13T19:48:22.499Z,7.03
2023-01-13T19:53:27.136Z,6.96
2023-01-13T19:58:30.861Z,6.84
2023-01-13T20:03:38.164Z,6.71
2023-01-13T20:08:42.293Z,6.55
2023-01-13T20:13:46.444Z,6.37
2023-01-13T20:18:51.768Z,6.21
2023-01-13T20:23:55.500Z,6.07
2023-01-13T20:28:59.118Z,5.93
2023-01-13T20:34:02.635Z,5.80
2023-01-13T20:39:09.203Z,5.70
2023-01-13T20:44:13.043Z,5.61
2023-01-13T20:49:16.765Z,5.52
2023-01-13T20:54:21.104Z,5.44
2023-01-13T20:59:24.563Z,5.37
2023-01-13T21:04:29.528Z,5.32
2023-01-13T21:09:32.772Z,5.28
2023-01-13T21:14:55.230Z,5.21
2023-01-13T21:19:59.156Z,5.13
2023-01-13T21:25:06.254Z,5.05
2023-01-13T21:30:15.852Z,5.00
2023-01-13T21:35:19.582Z,4.95
2023-01-13T21:40:22.740Z,4.91
2023-01-13T21:45:46.465Z,4.93
2023-01-13T21:50:49.944Z,4.93
2023-01-13T21:55:53.262Z,4.92
2023-01-13T22:00:56.811Z,4.90
2023-01-13T22:06:00.256Z,4.87
2023-01-13T22:11:03.911Z,4.83
2023-01-13T22:16:09.533Z,4.79
2023-01-13T22:21:12.884Z,4.77
2023-01-13T22:26:16.254Z,4.74
2023-01-13T22:31:23.959Z,4.71
2023-01-13T22:36:27.121Z,4.66
2023-01-13T22:41:30.933Z,4.63
2023-01-13T22:46:34.084Z,4.59
2023-01-13T22:51:37.453Z,4.55
2023-01-13T22:56:41.283Z,4.53
2023-01-13T23:01:44.492Z,4.50
2023-01-13T23:06:47.593Z,4.43
2023-01-13T23:11:51.720Z,4.39
2023-01-13T23:16:54.996Z,4.34
2023-01-13T23:21:58.954Z,4.33
2023-01-13T23:27:02.268Z,4.36
2023-01-13T23:32:06.299Z,4.43
2023-01-13T23:37:09.620Z,4.51
2023-01-13T23:42:12.878Z,4.63
2023-01-13T23:47:16.228Z,4.76
2023-01-13T23:52:19.228Z,4.86
2023-01-13T23:57:22.743Z,4.93
